createdAt,value
2017-12-11T00:00:16.143Z,0.00
2017-12-11T00:01:16.138Z,0.00
2017-12-11T00:02:16.111Z,0.00
2017-12-11T00:03:16.106Z,0.00
2017-12-11T00:04:16.058Z,0.00
2017-12-11T00:05:16.034Z,0.00
2017-12-11T00:06:16.089Z,0.00
2017-12-11T00:07:16.001Z,0.00
2017-12-11T00:08:15.977Z,0.00
2017-12-11T00:09:16.006Z,0.00
2017-12-11T00:10:15.968Z,0.00
2017-12-11T00:11:15.881Z,0.00
2017-12-11T00:12:15.935Z,0.00
2017-12-11T00:13:15.930Z,0.00
2017-12-11T00:14:15.914Z,0.00
2017-12-11T00:15:15.812Z,0.00
2017-12-11T00:16:15.789Z,0.00
2017-12-11T00:17:15.751Z,0.00
2017-12-11T00:18:15.716Z,0.00
2017-12-11T00:19:15.720Z,0.00
2017-12-11T00:20:15.685Z,0.00
2017-12-11T00:21:15.660Z,0.00
2017-12-11T00:22:15.657Z,0.00
2017-12-11T00:23:15.616Z,0.00
2017-12-11T00:24:15.678Z,0.00
2017-12-11T00:25:15.660Z,0.00
2017-12-11T00:26:15.578Z,0.00
2017-12-11T00:27:15.584Z,0.00
2017-12-11T00:28:15.566Z,0.00
2017-12-11T00:29:15.486Z,0.00
2017-12-11T00:30:15.482Z,0.00
2017-12-11T00:31:15.491Z,0.00
2017-12-11T00:32:15.427Z,0.00
2017-12-11T00:33:15.438Z,0.00
2017-12-11T00:34:15.367Z,0.00
2017-12-11T00:35:15.363Z,0.00
2017-12-11T00:36:15.328Z,0.00
2017-12-11T00:37:15.360Z,0.00
2017-12-11T00:38:15.293Z,0.00
2017-12-11T00:39:15.291Z,0.00
2017-12-11T00:40:15.262Z,0.00
2017-12-11T00:41:15.222Z,0.00
2017-12-11T00:42:15.190Z,0.00
2017-12-11T00:43:15.189Z,0.00
2017-12-11T00:44:15.125Z,0.00
2017-12-11T00:45:15.100Z,0.00
2017-12-11T00:46:15.096Z,0.00
2017-12-11T00:47:15.076Z,0.00
2017-12-11T00:48:15.106Z,0.00
2017-12-11T00:49:15.043Z,0.00
2017-12-11T00:50:15.004Z,0.00
2017-12-11T00:51:15.036Z,0.00
2017-12-11T00:52:14.973Z,0.00
2017-12-11T00:53:14.951Z,0.00
2017-12-11T00:54:14.892Z,0.00
2017-12-11T00:55:14.895Z,0.00
2017-12-11T00:56:14.879Z,0.00
2017-12-11T00:57:14.843Z,0.00
2017-12-11T00:58:14.863Z,0.00
2017-12-11T00:59:14.815Z,0.00
2017-12-11T01:00:14.825Z,0.00
2017-12-11T01:01:14.747Z,0.00
2017-12-11T01:02:14.772Z,0.00
2017-12-11T01:03:14.710Z,0.00
2017-12-11T01:04:14.655Z,0.00
2017-12-11T01:05:14.756Z,0.00
2017-12-11T01:06:14.661Z,0.00
2017-12-11T01:07:14.667Z,0.00
2017-12-11T01:08:14.662Z,0.00
2017-12-11T01:09:14.545Z,0.00
2017-12-11T01:10:14.524Z,0.00
2017-12-11T01:11:14.510Z,0.00
2017-12-11T01:12:14.546Z,0.00
2017-12-11T01:13:14.493Z,0.00
2017-12-11T01:14:14.394Z,0.00
2017-12-11T01:15:14.398Z,0.00
2017-12-11T01:16:14.383Z,0.00
2017-12-11T01:17:14.388Z,0.00
2017-12-11T01:18:14.386Z,0.00
2017-12-11T01:19:14.423Z,0.00
2017-12-11T01:20:14.331Z,0.00
2017-12-11T01:21:14.325Z,0.00
2017-12-11T01:22:14.275Z,0.00
2017-12-11T01:23:14.287Z,0.00
2017-12-11T01:24:14.233Z,0.00
2017-12-11T01:25:14.253Z,0.00
2017-12-11T01:26:14.162Z,0.00
2017-12-11T01:27:14.169Z,0.00
2017-12-11T01:28:14.106Z,0.00
2017-12-11T01:29:14.123Z,0.00
2017-12-11T01:30:14.152Z,0.00
2017-12-11T01:31:14.071Z,0.00
2017-12-11T01:32:14.035Z,0.00
2017-12-11T01:33:14.062Z,0.00
2017-12-11T01:34:14.033Z,0.00
2017-12-11T01:35:14.007Z,0.00
2017-12-11T01:36:13.997Z,0.00
2017-12-11T01:37:13.995Z,0.00
2017-12-11T01:38:13.983Z,0.00
2017-12-11T01:39:13.905Z,0.00
2017-12-11T01:40:13.909Z,0.00
2017-12-11T01:41:13.817Z,0.00
2017-12-11T01:42:13.873Z,0.00
2017-12-11T01:43:13.794Z,0.00
2017-12-11T01:44:13.760Z,0.00
2017-12-11T01:45:13.862Z,0.00
2017-12-11T01:46:13.712Z,0.00
2017-12-11T01:47:13.721Z,0.00
2017-12-11T01:48:13.700Z,0.00
2017-12-11T01:49:14.364Z,0.00
2017-12-11T01:50:13.645Z,0.00
2017-12-11T01:51:13.628Z,0.00
2017-12-11T01:52:13.585Z,0.00
2017-12-11T01:53:13.572Z,0.00
2017-12-11T01:54:13.586Z,0.00
2017-12-11T01:55:13.530Z,0.00
2017-12-11T01:56:13.538Z,0.00
2017-12-11T01:57:13.563Z,0.00
2017-12-11T01:58:13.476Z,0.00
2017-12-11T01:59:13.444Z,0.00
2017-12-11T02:00:13.450Z,0.00
2017-12-11T02:01:13.393Z,0.00
2017-12-11T02:02:13.356Z,0.00
2017-12-11T02:03:13.343Z,0.00
2017-12-11T02:04:13.284Z,0.00
2017-12-11T02:05:13.340Z,0.00
2017-12-11T02:06:13.339Z,0.00
2017-12-11T02:07:13.270Z,0.00
2017-12-11T02:08:13.261Z,0.00
2017-12-11T02:09:13.225Z,0.00
2017-12-11T02:10:13.147Z,0.00
2017-12-11T02:11:13.165Z,0.00
2017-12-11T02:12:13.121Z,0.00
2017-12-11T02:13:13.165Z,0.00
2017-12-11T02:14:13.040Z,0.00
2017-12-11T02:15:13.059Z,0.00
2017-12-11T02:16:13.069Z,0.00
2017-12-11T02:17:13.042Z,0.00
2017-12-11T02:18:13.011Z,0.00
2017-12-11T02:19:13.003Z,0.00
2017-12-11T02:20:12.964Z,0.00
2017-12-11T02:21:12.886Z,0.00
2017-12-11T02:22:12.920Z,0.00
2017-12-11T02:23:12.837Z,0.00
2017-12-11T02:24:12.847Z,0.00
2017-12-11T02:25:12.866Z,0.00
2017-12-11T02:26:12.940Z,0.00
2017-12-11T02:27:12.857Z,0.00
2017-12-11T02:28:12.799Z,0.00
2017-12-11T02:29:12.771Z,0.00
2017-12-11T02:30:12.697Z,0.00
2017-12-11T02:31:12.748Z,0.00
2017-12-11T02:32:12.673Z,0.00
2017-12-11T02:33:12.714Z,0.00
2017-12-11T02:34:12.642Z,0.00
2017-12-11T02:35:12.561Z,0.00
2017-12-11T02:36:12.582Z,0.00
2017-12-11T02:37:12.601Z,0.00
2017-12-11T02:38:12.552Z,0.00
2017-12-11T02:39:12.453Z,0.00
2017-12-11T02:40:12.529Z,0.00
2017-12-11T02:41:12.458Z,0.00
2017-12-11T02:42:12.500Z,0.00
2017-12-11T02:43:12.402Z,0.00
2017-12-11T02:44:12.338Z,0.00
2017-12-11T02:45:12.346Z,0.00
2017-12-11T02:46:12.348Z,0.00
2017-12-11T02:47:12.308Z,0.00
2017-12-11T02:48:12.343Z,0.00
2017-12-11T02:49:12.292Z,0.00
2017-12-11T02:50:12.275Z,0.00
2017-12-11T02:51:12.269Z,0.00
2017-12-11T02:52:12.277Z,0.00
2017-12-11T02:53:12.180Z,0.00
2017-12-11T02:54:12.236Z,0.00
2017-12-11T02:55:12.107Z,0.00
2017-12-11T02:56:12.127Z,0.00
2017-12-11T02:57:12.135Z,0.00
2017-12-11T02:58:12.084Z,0.00
2017-12-11T02:59:12.036Z,0.00
2017-12-11T03:00:12.014Z,0.00
2017-12-11T03:01:12.041Z,0.00
2017-12-11T03:02:12.018Z,0.00
2017-12-11T03:03:11.978Z,0.00
2017-12-11T03:04:11.988Z,0.00
2017-12-11T03:05:11.982Z,0.00
2017-12-11T03:06:11.918Z,0.00
2017-12-11T03:07:11.853Z,0.00
2017-12-11T03:08:11.878Z,0.00
2017-12-11T03:09:11.808Z,0.00
2017-12-11T03:10:11.799Z,0.00
2017-12-11T03:11:11.751Z,0.00
2017-12-11T03:12:11.834Z,0.00
2017-12-11T03:13:11.801Z,0.00
2017-12-11T03:14:11.743Z,0.00
2017-12-11T03:15:11.679Z,0.00
2017-12-11T03:16:11.658Z,0.00
2017-12-11T03:17:11.744Z,0.00
2017-12-11T03:18:11.573Z,0.00
2017-12-11T03:19:11.597Z,0.00
2017-12-11T03:20:11.583Z,0.00
2017-12-11T03:21:11.585Z,0.00
2017-12-11T03:22:11.528Z,0.00
2017-12-11T03:23:11.513Z,0.00
2017-12-11T03:24:11.458Z,0.00
2017-12-11T03:25:11.516Z,0.00
2017-12-11T03:26:11.471Z,0.00
2017-12-11T03:27:11.394Z,0.00
2017-12-11T03:28:11.390Z,0.00
2017-12-11T03:29:11.377Z,0.00
2017-12-11T03:30:11.375Z,0.00
2017-12-11T03:31:11.354Z,0.00
2017-12-11T03:32:11.307Z,0.00
2017-12-11T03:33:11.326Z,0.00
2017-12-11T03:34:11.291Z,0.00
2017-12-11T03:35:11.217Z,0.00
2017-12-11T03:36:11.228Z,0.00
2017-12-11T03:37:11.151Z,0.00
2017-12-11T03:38:11.193Z,0.00
2017-12-11T03:39:11.162Z,0.00
2017-12-11T03:40:11.103Z,0.00
2017-12-11T03:41:11.142Z,0.00
2017-12-11T03:42:11.094Z,0.00
2017-12-11T03:43:11.112Z,0.00
2017-12-11T03:44:11.058Z,0.00
2017-12-11T03:45:11.067Z,0.00
2017-12-11T03:46:11.075Z,0.00
2017-12-11T03:47:10.935Z,0.00
2017-12-11T03:48:10.941Z,0.00
2017-12-11T03:49:10.900Z,0.00
2017-12-11T03:50:10.821Z,0.00
2017-12-11T03:51:10.839Z,0.00
2017-12-11T03:52:10.850Z,0.00
2017-12-11T03:53:10.858Z,0.00
2017-12-11T03:54:10.795Z,0.00
2017-12-11T03:55:10.785Z,0.00
2017-12-11T03:56:10.706Z,0.00
2017-12-11T03:57:10.758Z,0.00
2017-12-11T03:58:10.699Z,0.00
2017-12-11T03:59:10.719Z,0.00
2017-12-11T04:00:10.694Z,0.00
2017-12-11T04:01:10.669Z,0.00
2017-12-11T04:02:10.646Z,0.00
2017-12-11T04:03:10.577Z,0.00
2017-12-11T04:04:10.598Z,0.00
2017-12-11T04:05:10.598Z,0.00
2017-12-11T04:06:10.599Z,0.00
2017-12-11T04:07:10.516Z,0.00
2017-12-11T04:08:10.534Z,0.00
2017-12-11T04:09:10.463Z,0.00
2017-12-11T04:10:10.481Z,0.00
2017-12-11T04:11:10.390Z,0.00
2017-12-11T04:12:10.379Z,0.00
2017-12-11T04:13:10.388Z,0.00
2017-12-11T04:14:10.338Z,0.00
2017-12-11T04:15:10.319Z,0.00
2017-12-11T04:16:10.278Z,0.00
2017-12-11T04:17:10.262Z,0.00
2017-12-11T04:18:10.257Z,0.00
2017-12-11T04:19:10.221Z,0.00
2017-12-11T04:20:10.179Z,0.00
2017-12-11T04:21:10.183Z,0.00
2017-12-11T04:22:10.225Z,0.00
2017-12-11T04:23:10.143Z,0.00
2017-12-11T04:24:10.083Z,0.00
2017-12-11T04:25:10.111Z,0.00
2017-12-11T04:26:10.040Z,0.00
2017-12-11T04:27:10.022Z,0.00
2017-12-11T04:28:10.052Z,0.00
2017-12-11T04:29:09.997Z,0.00
2017-12-11T04:30:09.952Z,0.00
2017-12-11T04:31:09.994Z,0.00
2017-12-11T04:32:09.933Z,0.00
2017-12-11T04:33:09.909Z,0.00
2017-12-11T04:34:09.865Z,0.00
2017-12-11T04:35:09.852Z,0.00
2017-12-11T04:36:09.879Z,0.00
2017-12-11T04:37:09.779Z,0.00
2017-12-11T04:38:09.793Z,0.00
2017-12-11T04:39:09.815Z,0.00
2017-12-11T04:40:09.697Z,0.00
2017-12-11T04:41:09.776Z,0.00
2017-12-11T04:42:09.774Z,0.00
2017-12-11T04:43:09.651Z,0.00
2017-12-11T04:44:09.665Z,0.00
2017-12-11T04:45:09.579Z,0.00
2017-12-11T04:46:09.601Z,0.00
2017-12-11T04:47:09.549Z,0.00
2017-12-11T04:48:09.537Z,0.00
2017-12-11T04:49:09.518Z,0.00
2017-12-11T04:50:09.483Z,0.00
2017-12-11T04:51:18.233Z,0.00
2017-12-11T04:52:09.393Z,0.00
2017-12-11T04:53:09.486Z,0.00
2017-12-11T04:54:09.414Z,0.00
2017-12-11T04:55:09.425Z,0.00
2017-12-11T04:56:09.381Z,0.00
2017-12-11T04:57:09.418Z,0.00
2017-12-11T04:58:09.403Z,0.00
2017-12-11T04:59:09.489Z,0.00
2017-12-11T05:00:09.224Z,0.00
2017-12-11T05:01:09.205Z,0.00
2017-12-11T05:02:09.232Z,0.00
2017-12-11T05:03:09.197Z,0.00
2017-12-11T05:04:09.150Z,0.00
2017-12-11T05:05:09.306Z,0.00
2017-12-11T05:06:09.091Z,0.00
2017-12-11T05:07:09.112Z,0.00
2017-12-11T05:08:09.921Z,0.00
2017-12-11T05:09:09.094Z,0.00
2017-12-11T05:10:10.474Z,0.00
2017-12-11T05:11:09.507Z,0.00
2017-12-11T05:12:10.655Z,0.00
2017-12-11T05:13:09.173Z,0.00
2017-12-11T05:14:09.373Z,0.00
2017-12-11T05:15:09.148Z,0.00
2017-12-11T05:16:08.954Z,0.00
2017-12-11T05:17:08.874Z,0.00
2017-12-11T05:18:08.861Z,0.00
2017-12-11T05:19:08.878Z,0.00
2017-12-11T05:20:09.412Z,0.00
2017-12-11T05:21:08.846Z,0.00
2017-12-11T05:22:08.920Z,0.00
2017-12-11T05:23:08.833Z,0.00
2017-12-11T05:24:08.724Z,0.00
2017-12-11T05:25:11.638Z,0.00
2017-12-11T05:26:08.803Z,0.00
2017-12-11T05:27:08.680Z,0.00
2017-12-11T05:28:08.614Z,0.00
2017-12-11T05:29:08.713Z,0.00
2017-12-11T05:30:08.570Z,0.00
2017-12-11T05:31:08.565Z,0.00
2017-12-11T05:32:08.595Z,0.00
2017-12-11T05:33:08.608Z,0.00
2017-12-11T05:34:08.540Z,0.00
2017-12-11T05:35:08.515Z,0.00
2017-12-11T05:36:08.562Z,0.00
2017-12-11T05:37:08.451Z,0.00
2017-12-11T05:38:08.462Z,0.00
2017-12-11T05:39:08.362Z,0.00
2017-12-11T05:40:08.442Z,0.00
2017-12-11T05:41:08.403Z,0.00
2017-12-11T05:42:08.436Z,0.00
2017-12-11T05:43:08.340Z,0.00
2017-12-11T05:44:08.286Z,0.00
2017-12-11T05:45:08.246Z,0.00
2017-12-11T05:46:08.303Z,0.00
2017-12-11T05:47:08.172Z,0.00
2017-12-11T05:48:08.171Z,0.00
2017-12-11T05:49:08.196Z,0.00
2017-12-11T05:50:08.147Z,0.00
2017-12-11T05:51:08.199Z,0.00
2017-12-11T05:52:08.096Z,0.00
2017-12-11T05:53:08.071Z,0.00
2017-12-11T05:54:08.090Z,0.00
2017-12-11T05:55:07.968Z,0.00
2017-12-11T05:56:07.974Z,0.00
2017-12-11T05:57:08.030Z,0.00
2017-12-11T05:58:07.898Z,0.00
2017-12-11T05:59:08.010Z,0.00
2017-12-11T06:00:07.929Z,0.00
2017-12-11T06:01:07.852Z,0.00
2017-12-11T06:02:07.926Z,0.00
2017-12-11T06:03:07.923Z,0.00
2017-12-11T06:04:07.812Z,0.00
2017-12-11T06:05:07.792Z,0.00
2017-12-11T06:06:07.735Z,0.00
2017-12-11T06:07:07.777Z,0.00
2017-12-11T06:08:07.770Z,0.00
2017-12-11T06:09:07.761Z,0.00
2017-12-11T06:10:07.647Z,0.00
2017-12-11T06:11:07.608Z,0.00
2017-12-11T06:12:07.647Z,0.00
2017-12-11T06:13:16.208Z,0.00
2017-12-11T06:14:07.616Z,0.00
2017-12-11T06:15:07.512Z,0.00
2017-12-11T06:16:07.479Z,0.00
2017-12-11T06:17:07.465Z,0.00
2017-12-11T06:18:07.379Z,0.00
2017-12-11T06:19:11.181Z,0.00
2017-12-11T06:20:07.362Z,0.00
2017-12-11T06:21:07.373Z,0.00
2017-12-11T06:22:07.354Z,0.00
2017-12-11T06:23:07.386Z,0.00
2017-12-11T06:24:07.259Z,0.00
2017-12-11T06:25:07.223Z,0.00
2017-12-11T06:26:07.309Z,0.00
2017-12-11T06:27:07.211Z,0.00
2017-12-11T06:28:07.173Z,0.00
2017-12-11T06:29:07.114Z,0.00
2017-12-11T06:30:07.168Z,0.00
2017-12-11T06:31:07.070Z,0.00
2017-12-11T06:32:07.100Z,0.00
2017-12-11T06:33:11.610Z,0.00
2017-12-11T06:34:07.110Z,0.00
2017-12-11T06:35:07.018Z,0.00
2017-12-11T06:36:06.951Z,0.00
2017-12-11T06:37:06.995Z,0.00
2017-12-11T06:38:06.985Z,0.00
2017-12-11T06:39:06.912Z,0.00
2017-12-11T06:40:06.884Z,0.00
2017-12-11T06:41:06.841Z,0.00
2017-12-11T06:42:06.823Z,0.00
2017-12-11T06:43:06.863Z,0.00
2017-12-11T06:44:06.799Z,0.00
2017-12-11T06:45:06.801Z,0.00
2017-12-11T06:46:06.748Z,0.00
2017-12-11T06:47:06.689Z,4.00
2017-12-11T06:48:06.772Z,4.00
2017-12-11T06:49:06.739Z,4.00
2017-12-11T06:50:06.676Z,0.00
2017-12-11T06:51:06.681Z,4.00
2017-12-11T06:52:06.780Z,8.00
2017-12-11T06:53:06.637Z,4.00
2017-12-11T06:54:12.083Z,8.00
2017-12-11T06:55:06.581Z,8.00
2017-12-11T06:56:10.101Z,8.00
2017-12-11T06:57:06.586Z,12.00
2017-12-11T06:58:06.496Z,12.00
2017-12-11T06:59:10.086Z,16.00
2017-12-11T07:00:06.404Z,16.00
2017-12-11T07:01:06.420Z,16.00
2017-12-11T07:02:06.401Z,16.00
2017-12-11T07:03:06.394Z,20.00
2017-12-11T07:04:06.347Z,20.00
2017-12-11T07:05:06.370Z,20.00
2017-12-11T07:06:06.281Z,28.00
2017-12-11T07:07:06.259Z,28.00
2017-12-11T07:08:06.158Z,28.00
2017-12-11T07:09:06.237Z,32.00
2017-12-11T07:10:06.236Z,32.00
2017-12-11T07:11:06.225Z,32.00
2017-12-11T07:12:06.181Z,36.00
2017-12-11T07:13:06.128Z,36.00
2017-12-11T07:14:06.071Z,40.00
2017-12-11T07:15:06.153Z,44.00
2017-12-11T07:16:06.010Z,44.00
2017-12-11T07:17:06.177Z,44.00
2017-12-11T07:18:06.090Z,44.00
2017-12-11T07:19:06.055Z,44.00
2017-12-11T07:20:06.007Z,48.00
2017-12-11T07:21:05.939Z,52.00
2017-12-11T07:22:05.938Z,52.00
2017-12-11T07:23:05.889Z,56.00
2017-12-11T07:24:05.893Z,60.00
2017-12-11T07:25:05.777Z,64.00
2017-12-11T07:26:05.821Z,64.00
2017-12-11T07:27:05.712Z,68.00
2017-12-11T07:28:05.728Z,72.00
2017-12-11T07:29:09.526Z,80.00
2017-12-11T07:30:09.617Z,88.00
2017-12-11T07:31:05.715Z,96.00
2017-12-11T07:32:05.626Z,104.00
2017-12-11T07:33:05.634Z,112.00
2017-12-11T07:34:05.875Z,120.00
2017-12-11T07:35:05.757Z,128.00
2017-12-11T07:36:05.522Z,136.00
2017-12-11T07:37:05.587Z,140.00
2017-12-11T07:38:09.119Z,152.00
2017-12-11T07:39:05.537Z,160.00
2017-12-11T07:40:05.498Z,172.00
2017-12-11T07:41:05.448Z,184.00
2017-12-11T07:42:05.448Z,196.00
2017-12-11T07:43:08.090Z,204.00
2017-12-11T07:44:08.153Z,212.00
2017-12-11T07:45:05.338Z,224.00
2017-12-11T07:46:05.289Z,224.00
2017-12-11T07:47:05.268Z,228.00
2017-12-11T07:48:05.240Z,224.00
2017-12-11T07:49:05.257Z,232.00
2017-12-11T07:50:05.191Z,236.00
2017-12-11T07:51:05.287Z,248.00
2017-12-11T07:52:05.202Z,260.00
2017-12-11T07:53:05.177Z,272.00
2017-12-11T07:54:05.166Z,280.00
2017-12-11T07:55:05.067Z,288.00
2017-12-11T07:56:05.104Z,300.00
2017-12-11T07:57:05.096Z,312.00
2017-12-11T07:58:05.036Z,324.00
2017-12-11T07:59:04.995Z,336.00
2017-12-11T08:00:04.927Z,344.00
2017-12-11T08:01:04.953Z,352.00
2017-12-11T08:02:04.952Z,356.00
2017-12-11T08:03:05.604Z,360.00
2017-12-11T08:04:04.862Z,364.00
2017-12-11T08:05:04.903Z,368.00
2017-12-11T08:06:04.826Z,368.00
2017-12-11T08:07:07.647Z,368.00
2017-12-11T08:08:04.835Z,364.00
2017-12-11T08:09:04.741Z,364.00
2017-12-11T08:10:04.816Z,364.00
2017-12-11T08:11:04.756Z,364.00
2017-12-11T08:12:04.704Z,372.00
2017-12-11T08:13:08.581Z,376.00
2017-12-11T08:14:04.629Z,388.00
2017-12-11T08:15:04.641Z,396.00
2017-12-11T08:16:04.556Z,404.00
2017-12-11T08:17:04.568Z,416.00
2017-12-11T08:18:04.532Z,424.00
2017-12-11T08:19:04.527Z,444.00
2017-12-11T08:20:04.502Z,452.00
2017-12-11T08:21:04.478Z,480.00
2017-12-11T08:22:04.437Z,496.00
2017-12-11T08:23:04.405Z,512.00
2017-12-11T08:24:04.406Z,528.00
2017-12-11T08:25:04.396Z,544.00
2017-12-11T08:26:04.339Z,556.00
2017-12-11T08:27:04.358Z,572.00
2017-12-11T08:28:04.324Z,580.00
2017-12-11T08:29:04.320Z,596.00
2017-12-11T08:30:04.264Z,632.00
2017-12-11T08:31:04.271Z,660.00
2017-12-11T08:32:04.230Z,684.00
2017-12-11T08:33:04.198Z,700.00
2017-12-11T08:34:04.232Z,700.00
2017-12-11T08:35:04.127Z,712.00
2017-12-11T08:36:04.106Z,720.00
2017-12-11T08:37:04.170Z,708.00
2017-12-11T08:38:04.077Z,676.00
2017-12-11T08:39:04.073Z,652.00
2017-12-11T08:40:04.036Z,628.00
2017-12-11T08:41:04.012Z,584.00
2017-12-11T08:42:03.953Z,568.00
2017-12-11T08:43:03.989Z,564.00
2017-12-11T08:44:04.006Z,564.00
2017-12-11T08:45:03.894Z,568.00
2017-12-11T08:46:03.890Z,588.00
2017-12-11T08:47:03.861Z,616.00
2017-12-11T08:48:03.856Z,616.00
2017-12-11T08:49:03.823Z,616.00
2017-12-11T08:50:03.780Z,632.00
2017-12-11T08:51:03.775Z,624.00
2017-12-11T08:52:03.769Z,624.00
2017-12-11T08:53:03.730Z,612.00
2017-12-11T08:54:03.700Z,616.00
2017-12-11T08:55:06.585Z,652.00
2017-12-11T08:56:03.669Z,704.00
2017-12-11T08:57:03.649Z,748.00
2017-12-11T08:58:03.620Z,792.00
2017-12-11T08:59:03.594Z,792.00
2017-12-11T09:00:03.575Z,764.00
2017-12-11T09:01:03.542Z,800.00
2017-12-11T09:02:03.509Z,824.00
2017-12-11T09:03:03.471Z,780.00
2017-12-11T09:04:08.076Z,724.00
2017-12-11T09:05:03.416Z,708.00
2017-12-11T09:06:03.433Z,672.00
2017-12-11T09:07:03.369Z,656.00
2017-12-11T09:08:03.411Z,672.00
2017-12-11T09:09:03.358Z,644.00
2017-12-11T09:10:03.374Z,624.00
2017-12-11T09:11:03.322Z,612.00
2017-12-11T09:12:03.296Z,604.00
2017-12-11T09:13:03.263Z,580.00
2017-12-11T09:14:03.215Z,624.00
2017-12-11T09:15:03.188Z,632.00
2017-12-11T09:16:03.218Z,636.00
2017-12-11T09:17:03.185Z,644.00
2017-12-11T09:18:03.126Z,652.00
2017-12-11T09:19:03.095Z,672.00
2017-12-11T09:20:03.064Z,672.00
2017-12-11T09:21:03.070Z,684.00
2017-12-11T09:22:03.067Z,680.00
2017-12-11T09:23:03.015Z,688.00
2017-12-11T09:24:02.974Z,692.00
2017-12-11T09:25:02.957Z,696.00
2017-12-11T09:26:02.956Z,696.00
2017-12-11T09:27:02.905Z,696.00
2017-12-11T09:28:02.913Z,696.00
2017-12-11T09:29:02.864Z,680.00
2017-12-11T09:30:02.865Z,664.00
2017-12-11T09:31:02.853Z,676.00
2017-12-11T09:32:02.799Z,696.00
2017-12-11T09:33:02.783Z,712.00
2017-12-11T09:34:02.803Z,720.00
2017-12-11T09:35:06.650Z,736.00
2017-12-11T09:36:02.702Z,756.00
2017-12-11T09:37:02.748Z,756.00
2017-12-11T09:38:02.640Z,764.00
2017-12-11T09:39:02.647Z,748.00
2017-12-11T09:40:02.645Z,732.00
2017-12-11T09:41:02.601Z,724.00
2017-12-11T09:42:02.580Z,740.00
2017-12-11T09:43:02.585Z,728.00
2017-12-11T09:44:02.543Z,708.00
2017-12-11T09:45:02.505Z,748.00
2017-12-11T09:46:02.486Z,816.00
2017-12-11T09:47:02.470Z,780.00
2017-12-11T09:48:02.451Z,788.00
2017-12-11T09:49:02.437Z,756.00
2017-12-11T09:50:02.480Z,800.00
2017-12-11T09:51:02.338Z,856.00
2017-12-11T09:52:02.971Z,864.00
2017-12-11T09:53:02.349Z,888.00
2017-12-11T09:54:02.311Z,928.00
2017-12-11T09:55:02.258Z,964.00
2017-12-11T09:56:02.318Z,992.00
2017-12-11T09:57:02.250Z,1004.00
2017-12-11T09:58:02.239Z,1020.00
2017-12-11T09:59:06.046Z,1032.00
2017-12-11T10:00:02.179Z,1020.00
2017-12-11T10:01:02.170Z,1024.00
2017-12-11T10:02:02.162Z,1012.00
2017-12-11T10:03:02.129Z,1000.00
2017-12-11T10:04:02.084Z,980.00
2017-12-11T10:05:02.040Z,1000.00
2017-12-11T10:06:02.121Z,1040.00
2017-12-11T10:07:02.034Z,1072.00
2017-12-11T10:08:01.986Z,1104.00
2017-12-11T10:09:01.967Z,1124.00
2017-12-11T10:10:01.939Z,1096.00
2017-12-11T10:11:01.927Z,1112.00
2017-12-11T10:12:01.895Z,1112.00
2017-12-11T10:13:01.962Z,1104.00
2017-12-11T10:14:01.844Z,1160.00
2017-12-11T10:15:01.914Z,1172.00
2017-12-11T10:16:01.791Z,1172.00
2017-12-11T10:17:01.812Z,1276.00
2017-12-11T10:18:01.765Z,1328.00
2017-12-11T10:19:01.763Z,1308.00
2017-12-11T10:20:01.756Z,1328.00
2017-12-11T10:21:01.745Z,1348.00
2017-12-11T10:22:01.712Z,1284.00
2017-12-11T10:23:01.624Z,1252.00
2017-12-11T10:24:01.627Z,1264.00
2017-12-11T10:25:01.589Z,1264.00
2017-12-11T10:26:01.628Z,1260.00
2017-12-11T10:27:01.559Z,1256.00
2017-12-11T10:28:01.503Z,1236.00
2017-12-11T10:29:01.520Z,1272.00
2017-12-11T10:30:05.179Z,1316.00
2017-12-11T10:31:01.433Z,1340.00
2017-12-11T10:32:01.473Z,1352.00
2017-12-11T10:33:01.399Z,1352.00
2017-12-11T10:34:01.389Z,1272.00
2017-12-11T10:35:01.399Z,1200.00
2017-12-11T10:36:01.461Z,1176.00
2017-12-11T10:37:01.329Z,1128.00
2017-12-11T10:38:01.285Z,1088.00
2017-12-11T10:39:01.277Z,1076.00
2017-12-11T10:40:01.277Z,1056.00
2017-12-11T10:41:01.255Z,1040.00
2017-12-11T10:42:01.232Z,1048.00
2017-12-11T10:43:01.180Z,1068.00
2017-12-11T10:44:01.148Z,1120.00
2017-12-11T10:45:01.164Z,1144.00
2017-12-11T10:46:01.104Z,1120.00
2017-12-11T10:47:04.588Z,1116.00
2017-12-11T10:48:01.082Z,1160.00
2017-12-11T10:49:01.084Z,1220.00
2017-12-11T10:50:01.178Z,1240.00
2017-12-11T10:51:08.684Z,1244.00
2017-12-11T10:52:00.944Z,1252.00
2017-12-11T10:53:05.516Z,1296.00
2017-12-11T10:54:03.623Z,1332.00
2017-12-11T10:55:01.004Z,1284.00
2017-12-11T10:56:00.918Z,1240.00
2017-12-11T10:57:04.604Z,1152.00
2017-12-11T10:58:04.760Z,1212.00
2017-12-11T10:59:00.833Z,1144.00
2017-12-11T11:00:00.784Z,1092.00
2017-12-11T11:01:00.801Z,1108.00
2017-12-11T11:02:00.766Z,1140.00
2017-12-11T11:03:00.749Z,1180.00
2017-12-11T11:04:00.757Z,1088.00
2017-12-11T11:05:04.616Z,996.00
2017-12-11T11:06:00.692Z,928.00
2017-12-11T11:07:00.639Z,1000.00
2017-12-11T11:08:00.635Z,1032.00
2017-12-11T11:09:00.594Z,1124.00
2017-12-11T11:10:00.557Z,1284.00
2017-12-11T11:11:00.564Z,1284.00
2017-12-11T11:12:00.601Z,1328.00
2017-12-11T11:13:00.515Z,1308.00
2017-12-11T11:14:00.458Z,1352.00
2017-12-11T11:15:00.470Z,1368.00
2017-12-11T11:16:00.452Z,1420.00
2017-12-11T11:17:04.110Z,1440.00
2017-12-11T11:18:00.445Z,1512.00
2017-12-11T11:19:00.364Z,1468.00
2017-12-11T11:20:00.388Z,1452.00
2017-12-11T11:21:00.316Z,1412.00
2017-12-11T11:22:00.318Z,1324.00
2017-12-11T11:23:00.299Z,1200.00
2017-12-11T11:24:00.267Z,1252.00
2017-12-11T11:25:00.249Z,1316.00
2017-12-11T11:26:00.215Z,1248.00
2017-12-11T11:27:00.183Z,1252.00
2017-12-11T11:28:00.172Z,1288.00
2017-12-11T11:29:05.053Z,1224.00
2017-12-11T11:30:04.155Z,1176.00
2017-12-11T11:31:00.087Z,1136.00
2017-12-11T11:32:00.067Z,1000.00
2017-12-11T11:33:00.099Z,952.00
2017-12-11T11:33:59.999Z,980.00
2017-12-11T11:35:00.055Z,940.00
2017-12-11T11:36:00.019Z,932.00
2017-12-11T11:36:59.917Z,980.00
2017-12-11T11:37:59.961Z,1016.00
2017-12-11T11:39:02.644Z,992.00
2017-12-11T11:40:02.622Z,920.00
2017-12-11T11:40:59.867Z,788.00
2017-12-11T11:41:59.886Z,736.00
2017-12-11T11:42:59.846Z,728.00
2017-12-11T11:43:59.814Z,776.00
2017-12-11T11:44:59.773Z,812.00
2017-12-11T11:45:59.754Z,812.00
2017-12-11T11:46:59.776Z,788.00
2017-12-11T11:47:59.705Z,828.00
2017-12-11T11:48:59.694Z,796.00
2017-12-11T11:49:59.675Z,752.00
2017-12-11T11:50:59.643Z,684.00
2017-12-11T11:51:59.639Z,736.00
2017-12-11T11:52:59.591Z,724.00
2017-12-11T11:53:59.585Z,704.00
2017-12-11T11:54:59.529Z,684.00
2017-12-11T11:55:59.561Z,704.00
2017-12-11T11:56:59.526Z,740.00
2017-12-11T11:57:59.485Z,736.00
2017-12-11T11:58:59.461Z,708.00
2017-12-11T11:59:59.455Z,740.00
2017-12-11T12:00:59.472Z,768.00
2017-12-11T12:01:59.405Z,820.00
2017-12-11T12:02:59.383Z,864.00
2017-12-11T12:03:59.321Z,856.00
2017-12-11T12:04:59.306Z,792.00
2017-12-11T12:05:59.299Z,788.00
2017-12-11T12:06:59.308Z,760.00
2017-12-11T12:07:59.264Z,756.00
2017-12-11T12:08:59.238Z,664.00
2017-12-11T12:09:59.223Z,696.00
2017-12-11T12:10:59.265Z,632.00
2017-12-11T12:11:59.236Z,648.00
2017-12-11T12:12:59.143Z,540.00
2017-12-11T12:13:59.150Z,472.00
2017-12-11T12:14:59.124Z,472.00
2017-12-11T12:15:59.085Z,524.00
2017-12-11T12:16:59.085Z,520.00
2017-12-11T12:17:59.002Z,528.00
2017-12-11T12:18:59.010Z,564.00
2017-12-11T12:19:59.020Z,556.00
2017-12-11T12:20:58.984Z,616.00
2017-12-11T12:21:58.971Z,596.00
2017-12-11T12:22:58.912Z,656.00
2017-12-11T12:23:58.908Z,676.00
2017-12-11T12:24:58.905Z,648.00
2017-12-11T12:25:58.850Z,588.00
2017-12-11T12:26:58.833Z,572.00
2017-12-11T12:27:58.788Z,572.00
2017-12-11T12:28:58.822Z,584.00
2017-12-11T12:29:58.795Z,520.00
2017-12-11T12:30:58.806Z,540.00
2017-12-11T12:31:58.726Z,544.00
2017-12-11T12:32:58.748Z,456.00
2017-12-11T12:33:58.674Z,448.00
2017-12-11T12:34:58.628Z,472.00
2017-12-11T12:35:58.632Z,508.00
2017-12-11T12:36:58.601Z,520.00
2017-12-11T12:37:58.593Z,544.00
2017-12-11T12:38:58.560Z,548.00
2017-12-11T12:39:58.581Z,556.00
2017-12-11T12:40:58.536Z,564.00
2017-12-11T12:41:58.505Z,552.00
2017-12-11T12:42:58.526Z,508.00
2017-12-11T12:43:58.467Z,544.00
2017-12-11T12:44:58.521Z,524.00
2017-12-11T12:45:58.445Z,548.00
2017-12-11T12:46:58.438Z,464.00
2017-12-11T12:47:58.426Z,504.00
2017-12-11T12:48:58.355Z,532.00
2017-12-11T12:49:59.012Z,544.00
2017-12-11T12:50:58.301Z,536.00
2017-12-11T12:51:58.305Z,536.00